createdAt,value
2017-09-09T11:31:41.246Z,20.59
2017-09-09T11:32:50.221Z,20.57
2017-09-09T11:33:59.845Z,20.52
2017-09-09T11:35:08.869Z,20.7
2017-09-09T11:36:17.527Z,20.7
2017-09-09T11:37:26.183Z,20.66
2017-09-09T11:38:35.168Z,20.67
2017-09-09T11:39:44.176Z,20.69
2017-09-09T11:40:52.880Z,20.73
2017-09-09T11:42:01.854Z,20.7
2017-09-09T11:43:10.843Z,20.67
2017-09-09T11:44:20.124Z,20.74
2017-09-09T11:45:29.129Z,20.66
2017-09-09T11:46:38.117Z,20.73
2017-09-09T11:47:47.423Z,20.72
2017-09-09T11:48:56.447Z,20.67
2017-09-09T11:50:05.434Z,20.7
2017-09-09T11:51:14.721Z,20.61
2017-09-09T11:52:24.014Z,20.67
2017-09-09T11:53:33.318Z,20.7
2017-09-09T11:54:42.282Z,20.72
2017-09-09T11:55:50.944Z,20.69
2017-09-09T11:57:00.228Z,20.76
2017-09-09T11:58:08.889Z,20.79
2017-09-09T11:59:17.553Z,20.72
2017-09-09T12:00:26.218Z,20.69
2017-09-09T12:01:35.209Z,20.64
2017-09-09T12:02:44.840Z,20.72
2017-09-09T12:03:53.496Z,20.73
2017-09-09T12:05:02.158Z,20.7
2017-09-09T12:06:11.139Z,20.67
2017-09-09T12:07:20.116Z,20.72
2017-09-09T12:08:29.097Z,20.67
2017-09-09T12:09:38.368Z,20.77
2017-09-09T12:10:47.339Z,20.64
2017-09-09T12:11:56.328Z,20.67
2017-09-09T12:13:05.622Z,20.72
2017-09-09T12:14:14.914Z,20.76
2017-09-09T12:15:24.201Z,20.82
2017-09-09T12:16:33.538Z,20.77
2017-09-09T12:17:43.167Z,20.85
2017-09-09T12:18:51.827Z,20.88
2017-09-09T12:20:00.799Z,20.79
2017-09-09T12:21:09.449Z,20.87
2017-09-09T12:22:18.739Z,20.82
2017-09-09T12:23:27.715Z,20.84
2017-09-09T12:24:36.761Z,20.82
2017-09-09T12:25:45.727Z,20.92
2017-09-09T12:26:55.345Z,20.87
2017-09-09T12:28:04.000Z,20.82
2017-09-09T12:29:12.967Z,20.76
2017-09-09T12:30:21.944Z,20.76
2017-09-09T12:31:30.616Z,20.84
2017-09-09T12:32:39.587Z,20.7
2017-09-09T12:33:49.200Z,20.72
2017-09-09T12:34:58.185Z,20.69
2017-09-09T12:36:07.151Z,20.64
2017-09-09T12:37:15.832Z,20.66
2017-09-09T12:38:24.824Z,20.59
2017-09-09T12:39:33.821Z,20.57
2017-09-09T12:40:43.136Z,20.47
2017-09-09T12:41:52.117Z,20.51
2017-09-09T12:43:00.817Z,20.42
2017-09-09T12:44:09.798Z,20.36
2017-09-09T12:45:18.813Z,20.28
2017-09-09T12:46:27.471Z,20.18
2017-09-09T12:47:36.432Z,20.21
2017-09-09T12:48:45.410Z,20.21
2017-09-09T12:49:54.128Z,20.2
2017-09-09T12:51:03.104Z,20.16
2017-09-09T12:52:11.764Z,20.17
2017-09-09T12:53:21.056Z,20.16
2017-09-09T12:54:30.040Z,20.13
2017-09-09T12:55:39.328Z,20.16
2017-09-09T12:56:48.637Z,20.24
2017-09-09T12:57:58.565Z,20.21
2017-09-09T12:59:07.539Z,20.29
2017-09-09T13:00:16.506Z,20.28
2017-09-09T13:01:25.501Z,20.32
2017-09-09T13:02:34.159Z,20.28
2017-09-09T13:03:42.811Z,20.28
2017-09-09T13:04:51.483Z,20.28
2017-09-09T13:06:00.148Z,20.16
2017-09-09T13:07:09.183Z,20.21
2017-09-09T13:08:18.190Z,20.23
2017-09-09T13:09:27.166Z,20.31
2017-09-09T13:10:36.136Z,20.28
2017-09-09T13:11:45.102Z,20.33
2017-09-09T13:12:54.703Z,20.26
2017-09-09T13:14:03.682Z,20.39
2017-09-09T13:15:12.326Z,20.36
2017-09-09T13:16:20.997Z,20.39
2017-09-09T13:17:29.651Z,20.36
2017-09-09T13:18:38.314Z,20.39
2017-09-09T13:19:47.595Z,20.33
2017-09-09T13:20:56.254Z,20.39
2017-09-09T13:22:04.906Z,20.42
2017-09-09T13:23:13.875Z,20.52
2017-09-09T13:24:22.557Z,20.43
2017-09-09T13:25:31.529Z,20.48
2017-09-09T13:26:40.518Z,20.52
2017-09-09T13:27:49.507Z,20.52
2017-09-09T13:28:58.176Z,20.39
2017-09-09T13:30:07.239Z,20.52
2017-09-09T13:31:16.842Z,20.39
2017-09-09T13:32:25.814Z,20.51
2017-09-09T13:33:34.781Z,20.42
2017-09-09T13:34:44.061Z,20.43
2017-09-09T13:35:53.012Z,20.54
2017-09-09T13:37:02.297Z,20.64
2017-09-09T13:38:11.296Z,20.67
2017-09-09T13:39:20.584Z,20.7
2017-09-09T13:40:29.896Z,20.66
2017-09-09T13:41:38.551Z,20.69
2017-09-09T13:42:47.836Z,20.66
2017-09-09T13:43:57.132Z,20.76
2017-09-09T13:45:05.791Z,20.69
2017-09-09T13:46:14.521Z,20.69
2017-09-09T13:47:23.481Z,20.66
2017-09-09T13:48:32.140Z,20.67
2017-09-09T13:49:41.527Z,20.77
2017-09-09T13:50:50.199Z,20.82
2017-09-09T13:51:59.201Z,20.79
2017-09-09T13:53:07.852Z,20.8
2017-09-09T13:54:17.154Z,20.8
2017-09-09T13:55:26.148Z,20.79
2017-09-09T13:56:35.111Z,20.79
2017-09-09T13:57:44.092Z,20.79
2017-09-09T13:58:53.076Z,20.89
2017-09-09T14:00:02.039Z,20.8
2017-09-09T14:01:11.031Z,20.77
2017-09-09T14:02:20.320Z,20.84
2017-09-09T14:03:29.272Z,20.89
2017-09-09T14:04:37.919Z,20.85
2017-09-09T14:05:47.202Z,20.85
2017-09-09T14:06:56.189Z,20.77
2017-09-09T14:08:05.160Z,20.8
2017-09-09T14:09:13.825Z,20.82
2017-09-09T14:10:23.101Z,20.79
2017-09-09T14:11:31.767Z,20.72
2017-09-09T14:12:40.735Z,20.82
2017-09-09T14:13:49.711Z,20.79
2017-09-09T14:14:58.719Z,20.82
2017-09-09T14:16:08.356Z,20.76
2017-09-09T14:17:17.629Z,20.76
2017-09-09T14:18:26.596Z,20.77
2017-09-09T14:19:35.884Z,20.79
2017-09-09T14:20:45.194Z,20.88
2017-09-09T14:21:55.121Z,20.91
2017-09-09T14:23:04.093Z,20.92
2017-09-09T14:24:13.387Z,20.97
2017-09-09T14:25:22.670Z,20.94
2017-09-09T14:26:31.969Z,20.97
2017-09-09T14:27:41.248Z,20.95
2017-09-09T14:28:49.890Z,20.99
2017-09-09T14:29:59.173Z,21.03
2017-09-09T14:31:08.452Z,21.07
2017-09-09T14:32:17.420Z,21.06
2017-09-09T14:33:26.093Z,20.98
2017-09-09T14:34:35.395Z,21.06
2017-09-09T14:35:44.692Z,21.07
2017-09-09T14:36:53.975Z,21.13
2017-09-09T14:38:03.579Z,21.1
2017-09-09T14:39:12.879Z,21.14
2017-09-09T14:40:22.161Z,21.14
2017-09-09T14:41:31.141Z,21.16
2017-09-09T14:42:40.420Z,21.12
2017-09-09T14:43:49.709Z,21.16
2017-09-09T14:44:58.683Z,21.16
2017-09-09T14:46:08.278Z,21.14
2017-09-09T14:47:17.248Z,21.19
2017-09-09T14:48:26.233Z,21.17
2017-09-09T14:49:35.528Z,21.17
2017-09-09T14:50:44.197Z,21.24
2017-09-09T14:51:53.498Z,21.22
2017-09-09T14:53:02.778Z,21.22
2017-09-09T14:54:12.071Z,21.27
2017-09-09T14:55:20.731Z,21.21
2017-09-09T14:56:29.401Z,21.19
2017-09-09T14:57:38.135Z,21.22
2017-09-09T14:58:47.738Z,21.19
2017-09-09T14:59:56.427Z,21.22
2017-09-09T15:01:06.353Z,21.21
2017-09-09T15:02:15.323Z,21.24
2017-09-09T15:03:25.245Z,21.21
2017-09-09T15:04:33.898Z,21.25
2017-09-09T15:05:42.870Z,21.13
2017-09-09T15:06:52.159Z,21.13
2017-09-09T15:08:01.131Z,21.1
2017-09-09T15:09:10.114Z,21.12
2017-09-09T15:10:19.410Z,21.09
2017-09-09T15:11:28.373Z,21.16
2017-09-09T15:12:37.715Z,21.13
2017-09-09T15:13:46.395Z,21.17
2017-09-09T15:14:55.063Z,21.16
2017-09-09T15:16:04.976Z,21.24
2017-09-09T15:17:13.725Z,21.27
2017-09-09T15:18:23.042Z,21.32
2017-09-09T15:19:32.332Z,21.35
2017-09-09T15:20:41.014Z,21.43
2017-09-09T15:21:50.326Z,21.52
2017-09-09T15:22:58.983Z,21.54
2017-09-09T15:24:07.672Z,21.61
2017-09-09T15:25:16.338Z,21.74
2017-09-09T15:26:25.660Z,21.77
2017-09-09T15:27:34.338Z,21.71
2017-09-09T15:28:43.646Z,21.9
2017-09-09T15:29:52.305Z,21.99
2017-09-09T15:31:01.283Z,21.96
2017-09-09T15:32:09.931Z,21.98
2017-09-09T15:33:19.247Z,22.09
2017-09-09T15:34:28.249Z,22.18
2017-09-09T15:35:37.261Z,22.2
2017-09-09T15:36:46.843Z,22.18
2017-09-09T15:37:55.868Z,22.33
2017-09-09T15:39:05.012Z,22.28
2017-09-09T15:40:14.003Z,22.28
2017-09-09T15:41:22.656Z,22.25
2017-09-09T15:42:31.639Z,22.17
2017-09-09T15:43:40.298Z,22.21
2017-09-09T15:44:49.943Z,22.21
2017-09-09T15:45:58.922Z,22.06
2017-09-09T15:47:08.210Z,22.02
2017-09-09T15:48:17.190Z,21.96
2017-09-09T15:49:26.168Z,21.96
2017-09-09T15:50:34.833Z,21.92
2017-09-09T15:51:43.799Z,21.77
2017-09-09T15:52:52.788Z,21.79
2017-09-09T15:54:01.447Z,21.65
2017-09-09T15:55:10.410Z,21.61
2017-09-09T15:56:19.383Z,21.56
2017-09-09T15:57:28.036Z,21.49
2017-09-09T15:58:37.646Z,21.46
2017-09-09T15:59:46.630Z,21.37
2017-09-09T16:00:55.944Z,21.35
2017-09-09T16:02:04.606Z,21.37
2017-09-09T16:03:13.577Z,21.29
2017-09-09T16:04:22.261Z,21.27
2017-09-09T16:05:31.258Z,21.28
2017-09-09T16:06:40.626Z,21.22
2017-09-09T16:07:51.442Z,21.13
2017-09-09T16:09:00.728Z,21.12
2017-09-09T16:10:10.330Z,20.98
2017-09-09T16:11:19.321Z,21.06
2017-09-09T16:12:28.291Z,21.06
2017-09-09T16:13:37.304Z,21.06
2017-09-09T16:14:46.279Z,20.98
2017-09-09T16:15:55.574Z,20.94
2017-09-09T16:17:04.583Z,20.94
2017-09-09T16:18:13.874Z,20.95
2017-09-09T16:19:23.171Z,20.91
2017-09-09T16:20:32.162Z,20.82
2017-09-09T16:21:41.138Z,20.85
2017-09-09T16:22:49.800Z,20.88
2017-09-09T16:23:58.809Z,20.91
2017-09-09T16:25:08.098Z,20.84
2017-09-09T16:26:17.065Z,20.85
2017-09-09T16:27:25.725Z,20.8
2017-09-09T16:28:35.326Z,20.79
2017-09-09T16:29:44.633Z,20.79
2017-09-09T16:30:53.620Z,20.79
2017-09-09T16:32:03.557Z,20.79
2017-09-09T16:33:12.852Z,20.8
2017-09-09T16:34:21.834Z,20.7
2017-09-09T16:35:30.823Z,20.79
2017-09-09T16:36:39.515Z,20.74
2017-09-09T16:37:48.143Z,20.7
2017-09-09T16:38:57.441Z,20.76
2017-09-09T16:40:06.731Z,20.79
2017-09-09T16:41:15.705Z,20.72
2017-09-09T16:42:24.680Z,20.76
2017-09-09T16:43:33.648Z,20.82
2017-09-09T16:44:42.940Z,20.7
2017-09-09T16:45:52.226Z,20.7
2017-09-09T16:47:01.191Z,20.82
2017-09-09T16:48:10.468Z,20.66
2017-09-09T16:49:20.091Z,20.67
2017-09-09T16:50:29.076Z,20.69
2017-09-09T16:51:38.050Z,20.66
2017-09-09T16:52:47.045Z,20.7
2017-09-09T16:53:55.703Z,20.7
2017-09-09T16:55:04.984Z,20.66
2017-09-09T16:56:14.306Z,20.74
2017-09-09T16:57:23.275Z,20.69
2017-09-09T16:58:32.262Z,20.69
2017-09-09T16:59:41.578Z,20.74
2017-09-09T17:00:51.165Z,20.77
2017-09-09T17:01:59.849Z,20.77
2017-09-09T17:03:09.145Z,20.8
2017-09-09T17:04:18.434Z,20.88
2017-09-09T17:05:27.435Z,20.89
2017-09-09T17:06:36.721Z,20.82
2017-09-09T17:07:45.695Z,20.8
2017-09-09T17:08:54.982Z,20.92
2017-09-09T17:10:03.648Z,20.82
2017-09-09T17:11:12.616Z,20.89
2017-09-09T17:12:21.590Z,20.89
2017-09-09T17:13:30.243Z,20.95
2017-09-09T17:14:39.239Z,20.95
2017-09-09T17:15:48.524Z,21.01
2017-09-09T17:16:57.497Z,20.95
2017-09-09T17:18:07.117Z,20.85
2017-09-09T17:19:16.406Z,20.88
2017-09-09T17:20:25.580Z,20.79
2017-09-09T17:21:34.558Z,20.72
2017-09-09T17:22:43.846Z,20.74
2017-09-09T17:23:53.449Z,20.67
2017-09-09T17:25:02.432Z,20.59
2017-09-09T17:26:12.045Z,20.54
2017-09-09T17:27:20.779Z,20.48
2017-09-09T17:28:29.443Z,20.47
2017-09-09T17:29:38.109Z,20.47
2017-09-09T17:30:47.456Z,20.43
2017-09-09T17:31:56.570Z,20.35
2017-09-09T17:33:05.540Z,20.28
2017-09-09T17:34:14.547Z,20.31
2017-09-09T17:35:24.143Z,20.32
2017-09-09T17:36:32.800Z,20.32
2017-09-09T17:37:41.768Z,20.31
2017-09-09T17:38:50.423Z,20.33
2017-09-09T17:39:59.397Z,20.24
2017-09-09T17:41:08.054Z,20.31
2017-09-09T17:42:17.672Z,20.29
2017-09-09T17:43:26.318Z,20.35
2017-09-09T17:44:35.616Z,20.24
2017-09-09T17:45:44.895Z,20.31
2017-09-09T17:46:53.556Z,20.28
2017-09-09T17:48:02.852Z,20.31
2017-09-09T17:49:12.496Z,20.16
2017-09-09T17:50:21.474Z,20.31
2017-09-09T17:51:30.764Z,20.26
2017-09-09T17:52:39.806Z,20.29
2017-09-09T17:53:48.467Z,20.31
2017-09-09T17:54:57.750Z,20.24
2017-09-09T17:56:06.736Z,20.26
2017-09-09T17:57:16.184Z,20.21
2017-09-09T17:58:25.159Z,20.18
2017-09-09T17:59:34.436Z,20.17
2017-09-09T18:00:43.729Z,20.23
2017-09-09T18:01:53.019Z,20.17
2017-09-09T18:03:01.694Z,20.16
2017-09-09T18:04:10.678Z,20.2
2017-09-09T18:05:19.649Z,20.21
2017-09-09T18:06:28.933Z,20.16
2017-09-09T18:07:37.909Z,20.21
2017-09-09T18:08:47.198Z,20.18
2017-09-09T18:09:56.171Z,20.2
2017-09-09T18:11:04.824Z,20.13
2017-09-09T18:12:14.448Z,20.1
2017-09-09T18:13:24.058Z,20.03
2017-09-09T18:14:33.038Z,20.06
2017-09-09T18:15:41.688Z,19.98
2017-09-09T18:16:50.338Z,20.02
2017-09-09T18:17:59.305Z,19.98
2017-09-09T18:19:08.661Z,20.02
2017-09-09T18:20:17.700Z,19.98
2017-09-09T18:21:26.748Z,20.01
2017-09-09T18:22:35.792Z,20.05
2017-09-09T18:23:44.518Z,19.99
2017-09-09T18:24:53.486Z,20.01
2017-09-09T18:26:03.101Z,19.98
2017-09-09T18:27:12.118Z,20.02
2017-09-09T18:28:21.433Z,20.05
2017-09-09T18:29:30.416Z,20.06
2017-09-09T18:30:39.084Z,19.99
2017-09-09T18:31:48.137Z,19.96
2017-09-09T18:32:57.116Z,19.96
2017-09-09T18:34:06.419Z,19.96
2017-09-09T18:35:15.415Z,19.98
2017-09-09T18:36:24.720Z,19.91
2017-09-09T18:37:33.700Z,19.95
2017-09-09T18:38:43.350Z,19.86
2017-09-09T18:39:53.026Z,19.81
2017-09-09T18:41:01.988Z,19.86
2017-09-09T18:42:11.695Z,19.86
2017-09-09T18:43:20.696Z,19.83
2017-09-09T18:44:29.681Z,19.8
2017-09-09T18:45:38.674Z,19.76
2017-09-09T18:46:47.963Z,19.74
2017-09-09T18:47:57.577Z,19.71
2017-09-09T18:49:06.569Z,19.77
2017-09-09T18:50:15.566Z,19.77
2017-09-09T18:51:24.258Z,19.69
2017-09-09T18:52:33.233Z,19.73
2017-09-09T18:53:42.535Z,19.74
2017-09-09T18:54:51.902Z,19.71
2017-09-09T18:56:01.208Z,19.66
2017-09-09T18:57:11.203Z,19.69
2017-09-09T18:58:19.923Z,19.65
2017-09-09T18:59:29.209Z,19.76
2017-09-09T19:00:37.980Z,19.68
2017-09-09T19:01:46.637Z,19.61
2017-09-09T19:02:55.622Z,19.63
2017-09-09T19:04:04.618Z,19.68
2017-09-09T19:05:13.282Z,19.63
2017-09-09T19:06:22.322Z,19.66
2017-09-09T19:07:31.007Z,19.68
2017-09-09T19:08:40.406Z,19.65
2017-09-09T19:09:49.709Z,19.65
2017-09-09T19:10:59.372Z,19.69
2017-09-09T19:12:08.746Z,19.62
2017-09-09T19:13:17.754Z,19.62
2017-09-09T19:14:26.409Z,19.66
2017-09-09T19:15:35.444Z,19.68
2017-09-09T19:16:45.145Z,19.66
2017-09-09T19:17:54.447Z,19.63
2017-09-09T19:19:03.436Z,19.69
2017-09-09T19:20:12.459Z,19.65
2017-09-09T19:21:21.556Z,19.61
2017-09-09T19:22:30.573Z,19.59
2017-09-09T19:23:40.209Z,19.56
2017-09-09T19:24:49.530Z,19.55
2017-09-09T19:25:59.159Z,19.59
2017-09-09T19:27:09.169Z,19.56
2017-09-09T19:28:17.946Z,19.62
2017-09-09T19:29:26.919Z,19.62
2017-09-09T19:30:36.230Z,19.61
2017-09-09T19:31:44.888Z,19.55
2017-09-09T19:32:53.858Z,19.56
2017-09-09T19:34:02.515Z,19.62
2017-09-09T19:35:11.610Z,19.54
2017-09-09T19:36:20.906Z,19.59
2017-09-09T19:37:29.607Z,19.65
2017-09-09T19:38:38.568Z,19.54
2017-09-09T19:39:47.844Z,19.5
2017-09-09T19:40:56.501Z,19.55
2017-09-09T19:42:05.469Z,19.59
2017-09-09T19:43:14.464Z,19.51
2017-09-09T19:44:23.234Z,19.54
2017-09-09T19:45:32.544Z,19.56
2017-09-09T19:46:41.833Z,19.56
2017-09-09T19:47:51.142Z,19.54
2017-09-09T19:48:59.810Z,19.51
2017-09-09T19:50:08.462Z,19.54
2017-09-09T19:51:17.436Z,19.51
2017-09-09T19:52:26.406Z,19.56
2017-09-09T19:53:36.001Z,19.44
2017-09-09T19:54:44.991Z,19.5
2017-09-09T19:55:53.982Z,19.54
2017-09-09T19:57:02.709Z,19.51
2017-09-09T19:58:11.673Z,19.44
2017-09-09T19:59:20.977Z,19.44
2017-09-09T20:00:29.985Z,19.47
2017-09-09T20:01:39.495Z,19.46
2017-09-09T20:02:48.177Z,19.44
2017-09-09T20:03:57.461Z,19.43
2017-09-09T20:05:06.787Z,19.4
2017-09-09T20:06:15.809Z,19.4
2017-09-09T20:07:25.108Z,19.47
2017-09-09T20:08:33.831Z,19.36
2017-09-09T20:09:42.813Z,19.44
2017-09-09T20:10:52.105Z,19.44
2017-09-09T20:12:01.108Z,19.46
2017-09-09T20:13:09.772Z,19.41
2017-09-09T20:14:18.744Z,19.5
2017-09-09T20:15:27.764Z,19.5
2017-09-09T20:16:37.084Z,19.43
2017-09-09T20:17:45.811Z,19.44
2017-09-09T20:18:55.106Z,19.47
2017-09-09T20:20:03.753Z,19.51
2017-09-09T20:21:13.383Z,19.43
2017-09-09T20:22:22.349Z,19.47
2017-09-09T20:23:31.354Z,19.46
2017-09-09T20:24:40.637Z,19.43
2017-09-09T20:25:49.345Z,19.46
2017-09-09T20:26:58.644Z,19.36
2017-09-09T20:28:07.631Z,19.47
2017-09-09T20:29:16.617Z,19.33
2017-09-09T20:30:25.913Z,19.44
2017-09-09T20:31:34.883Z,19.32
2017-09-09T20:32:43.873Z,19.44
2017-09-09T20:33:52.562Z,19.36
2017-09-09T20:35:01.526Z,19.48
2017-09-09T20:36:10.179Z,19.44
2017-09-09T20:37:19.154Z,19.4
2017-09-09T20:38:27.810Z,19.39
2017-09-09T20:39:37.105Z,19.48
2017-09-09T20:40:46.409Z,19.36
2017-09-09T20:41:55.709Z,19.36
2017-09-09T20:43:05.038Z,19.33
2017-09-09T20:44:13.695Z,19.31
2017-09-09T20:45:22.368Z,19.43
2017-09-09T20:46:31.031Z,19.4
2017-09-09T20:47:40.010Z,19.36
2017-09-09T20:48:48.665Z,19.36
2017-09-09T20:49:57.963Z,19.28
2017-09-09T20:51:06.957Z,19.29
2017-09-09T20:52:16.593Z,19.29
2017-09-09T20:53:25.581Z,19.26
2017-09-09T20:54:34.297Z,19.26
2017-09-09T20:55:43.590Z,19.29
2017-09-09T20:56:52.569Z,19.28
2017-09-09T20:58:01.568Z,19.23
2017-09-09T20:59:10.237Z,19.11
2017-09-09T21:00:19.211Z,19.22
2017-09-09T21:01:28.508Z,19.13
2017-09-09T21:02:37.489Z,19.14
2017-09-09T21:03:46.792Z,19.08
2017-09-09T21:04:55.445Z,19.11
2017-09-09T21:06:04.114Z,19.11
2017-09-09T21:07:13.410Z,19.13
2017-09-09T21:08:23.013Z,19.14
2017-09-09T21:09:31.991Z,19.19
2017-09-09T21:10:41.312Z,19.25
2017-09-09T21:11:50.603Z,19.23
2017-09-09T21:12:59.887Z,19.28
2017-09-09T21:14:09.183Z,19.22
2017-09-09T21:15:18.472Z,19.26
2017-09-09T21:16:27.135Z,19.13
2017-09-09T21:17:36.281Z,19.16
2017-09-09T21:18:44.956Z,19.16
2017-09-09T21:19:54.887Z,19.14
2017-09-09T21:21:03.850Z,19.08
2017-09-09T21:22:12.514Z,19.14
2017-09-09T21:23:21.484Z,19.08
2017-09-09T21:24:30.469Z,19.11
2017-09-09T21:25:39.437Z,19.11
2017-09-09T21:26:48.410Z,19.13
2017-09-09T21:27:57.375Z,19.1
2017-09-09T21:29:06.034Z,19.13
2017-09-09T21:30:15.324Z,19.14
2017-09-09T21:31:24.916Z,19.14
2017-09-09T21:32:33.881Z,19.11
2017-09-09T21:33:42.864Z,19.13
2017-09-09T21:34:52.782Z,19.21
2017-09-09T21:36:01.424Z,19.25
2017-09-09T21:37:10.409Z,19.08
2017-09-09T21:38:19.712Z,19.22
2017-09-09T21:39:28.687Z,19.13
2017-09-09T21:40:37.690Z,19.22
2017-09-09T21:41:46.334Z,19.14
2017-09-09T21:42:55.298Z,19.18
2017-09-09T21:44:04.905Z,19.22
2017-09-09T21:45:14.179Z,19.28
2017-09-09T21:46:23.505Z,19.25
2017-09-09T21:47:32.495Z,19.23
2017-09-09T21:48:41.464Z,19.21
2017-09-09T21:49:50.119Z,19.19
2017-09-09T21:50:59.730Z,19.16
2017-09-09T21:52:09.318Z,19.16
2017-09-09T21:53:18.299Z,19.18
2017-09-09T21:54:27.601Z,19.25
2017-09-09T21:55:36.587Z,19.28
2017-09-09T21:56:45.593Z,19.29
2017-09-09T21:57:54.893Z,19.26
2017-09-09T21:59:04.493Z,19.28
2017-09-09T22:00:13.492Z,19.22
2017-09-09T22:01:22.479Z,19.26
2017-09-09T22:02:31.446Z,19.31
2017-09-09T22:03:40.544Z,19.36
2017-09-09T22:04:49.203Z,19.37
2017-09-09T22:05:57.874Z,19.36
2017-09-09T22:07:06.858Z,19.32
2017-09-09T22:08:15.545Z,19.36
2017-09-09T22:09:24.822Z,19.47
2017-09-09T22:10:33.902Z,19.39
2017-09-09T22:11:42.951Z,19.4
2017-09-09T22:12:52.321Z,19.29
2017-09-09T22:14:01.630Z,19.22
2017-09-09T22:15:11.342Z,19.22
2017-09-09T22:16:20.665Z,19.26
2017-09-09T22:17:30.464Z,19.32
2017-09-09T22:18:40.464Z,19.22
2017-09-09T22:19:49.457Z,19.23
2017-09-09T22:20:58.826Z,19.22
2017-09-09T22:22:07.843Z,19.23
2017-09-09T22:23:16.564Z,19.25
2017-09-09T22:24:25.999Z,19.26
2017-09-09T22:25:36.285Z,19.25
2017-09-09T22:26:45.366Z,19.32
2017-09-09T22:27:54.237Z,19.48
2017-09-09T22:29:02.977Z,19.59
2017-09-09T22:30:12.670Z,19.58
2017-09-09T22:31:21.988Z,19.62
2017-09-09T22:32:31.617Z,19.87
2017-09-09T22:33:40.615Z,19.86
2017-09-09T22:34:49.582Z,20.01
2017-09-09T22:35:58.864Z,19.99
2017-09-09T22:37:07.524Z,19.95
2017-09-09T22:38:16.577Z,19.95
2017-09-09T22:39:25.559Z,19.98
2017-09-09T22:40:34.861Z,20.03
2017-09-09T22:41:43.537Z,19.99
2017-09-09T22:42:52.840Z,20.05
2017-09-09T22:44:01.503Z,19.83
2017-09-09T22:45:10.166Z,19.84
2017-09-09T22:46:19.495Z,19.78
2017-09-09T22:47:29.452Z,19.71
2017-09-09T22:48:38.752Z,19.66
2017-09-09T22:49:47.415Z,19.73
2017-09-09T22:50:56.100Z,19.73
2017-09-09T22:52:04.777Z,19.88
2017-09-09T22:53:14.402Z,19.98
2017-09-09T22:54:23.079Z,19.99
2017-09-09T22:55:32.052Z,20.11
2017-09-09T22:56:41.344Z,20.21
2017-09-09T22:57:50.340Z,20.2
2017-09-09T22:58:59.638Z,20.39
2017-09-09T23:00:08.933Z,20.41
2017-09-09T23:01:18.227Z,20.51
2017-09-09T23:02:27.530Z,20.42
2017-09-09T23:03:36.199Z,20.51
2017-09-09T23:04:45.179Z,20.48
2017-09-09T23:05:54.464Z,20.51
2017-09-09T23:07:03.432Z,20.42
2017-09-09T23:08:13.042Z,20.29
2017-09-09T23:09:22.041Z,20.2
2017-09-09T23:10:31.650Z,20.24
2017-09-09T23:11:40.621Z,20.14
2017-09-09T23:12:49.598Z,20.2
2017-09-09T23:13:58.570Z,20.2
2017-09-09T23:15:07.240Z,20.2
2017-09-09T23:16:15.916Z,20.21
2017-09-09T23:17:24.884Z,20.08
2017-09-09T23:18:34.793Z,20.06
2017-09-09T23:19:44.399Z,20.13
2017-09-09T23:20:53.680Z,20.01
2017-09-09T23:22:02.390Z,19.95
2017-09-09T23:23:11.364Z,19.98
2017-09-09T23:24:20.021Z,19.87
2017-09-09T23:25:28.695Z,19.83
2017-09-09T23:26:37.366Z,20.02
2017-09-09T23:27:46.368Z,19.95
2017-09-09T23:28:55.375Z,19.92
2017-09-09T23:30:04.340Z,19.86
2017-09-09T23:31:13.636Z,19.86
2017-09-09T23:32:22.608Z,19.78
2017-09-09T23:33:31.612Z,19.81
2017-09-09T23:34:41.199Z,19.74
2017-09-09T23:35:50.168Z,19.73
2017-09-09T23:36:59.163Z,19.62
2017-09-09T23:38:08.149Z,19.66
2017-09-09T23:39:17.127Z,19.65
2017-09-09T23:40:26.450Z,19.68
2017-09-09T23:41:35.430Z,19.59
2017-09-09T23:42:44.388Z,19.59
2017-09-09T23:43:53.981Z,19.59
2017-09-09T23:45:02.968Z,19.41
2017-09-09T23:46:12.007Z,19.46
2017-09-09T23:47:21.287Z,19.43
2017-09-09T23:48:30.591Z,19.39
2017-09-09T23:49:39.255Z,19.47
2017-09-09T23:50:48.233Z,19.44
2017-09-09T23:51:57.201Z,19.4
2017-09-09T23:53:06.483Z,19.37
2017-09-09T23:54:15.479Z,19.36
2017-09-09T23:55:24.768Z,19.36
2017-09-09T23:56:33.729Z,19.31
2017-09-09T23:57:42.696Z,19.23
2017-09-09T23:58:51.355Z,19.25
